Time;durP1;ratioP1;P1;durP2;ratioP2;P2;SDS_P1;SDS_P2;PMS_P1;PMS_P2;Temp;Humidity;BMP_temperature;BMP_pressure;BME280_temperature;BME280_humidity;BME280_pressure;Samples;Min_cycle;Max_cycle;Signal;HPM_P1;HPM_P2
2022/08/13 00:01:22;;;;;;;11.80;10.68;;;;;;;19.84;97.46;101027.15;1742270;81;26887;-78
2022/08/13 00:03:55;;;;;;;11.95;10.72;;;;;;;19.81;97.56;101022.17;1738463;81;25855;-78
2022/08/13 00:07:02;;;;;;;11.43;10.05;;;;;;;19.76;97.72;101018.00;1739745;81;25913;-78
2022/08/13 00:08:52;;;;;;;17.23;10.82;;;;;;;19.75;97.96;101017.16;1731878;81;26713;-79
2022/08/13 00:14:04;;;;;;;11.45;10.25;;;;;;;19.73;98.23;101011.14;1739119;81;28298;-79
2022/08/13 00:16:32;;;;;;;11.15;9.88;;;;;;;19.72;98.31;101011.35;1744818;81;25724;-80
2022/08/13 00:18:59;;;;;;;12.75;10.70;;;;;;;19.70;98.37;101010.77;1737227;81;25794;-78
2022/08/13 00:21:25;;;;;;;16.42;10.98;;;;;;;19.72;98.51;101010.83;1733050;81;25807;-79
2022/08/13 00:23:54;;;;;;;12.07;10.72;;;;;;;19.73;98.60;101000.79;1737240;81;25940;-79
2022/08/13 00:26:22;;;;;;;11.63;10.48;;;;;;;19.73;98.53;100995.35;1736707;81;27468;-79
2022/08/13 00:28:49;;;;;;;16.52;11.15;;;;;;;19.74;98.58;100995.11;1741561;81;25894;-79
2022/08/13 00:31:15;;;;;;;12.40;11.10;;;;;;;19.75;98.55;100989.98;1672786;84;26354;-78
2022/08/13 00:33:42;;;;;;;12.93;10.40;;;;;;;19.74;98.55;100985.59;1707845;82;26116;-79
2022/08/13 00:36:09;;;;;;;12.98;10.80;;;;;;;19.73;98.63;100996.19;1703059;82;25844;-80
2022/08/13 00:38:35;;;;;;;17.40;10.98;;;;;;;19.74;98.59;100987.48;1699592;82;27474;-78
2022/08/13 00:41:02;;;;;;;15.28;10.93;;;;;;;19.75;98.73;100991.86;1673674;84;26426;-79
2022/08/13 00:43:32;;;;;;;11.85;10.63;;;;;;;19.75;98.71;100987.27;1744352;80;26521;-78
2022/08/13 00:46:01;;;;;;;13.83;10.43;;;;;;;19.77;98.73;100988.38;1746859;81;25784;-78
2022/08/13 00:48:46;;;;;;;15.40;11.05;;;;;;;19.78;98.76;100990.84;1740820;81;25904;-79
2022/08/13 00:51:15;;;;;;;12.60;11.30;;;;;;;19.80;98.72;100997.42;1670248;84;28042;-79
2022/08/13 00:53:46;;;;;;;11.80;10.18;;;;;;;19.79;98.78;100988.96;1689255;84;25752;-78
2022/08/13 00:56:14;;;;;;;12.23;10.63;;;;;;;19.80;98.69;100990.63;1745233;81;26399;-79
2022/08/13 00:58:42;;;;;;;11.73;10.45;;;;;;;19.81;98.72;100979.51;1741592;81;25806;-78
2022/08/13 01:01:09;;;;;;;13.98;10.75;;;;;;;19.82;98.73;100973.55;1738748;81;26402;-79
2022/08/13 01:03:37;;;;;;;15.43;11.40;;;;;;;19.80;98.72;100975.68;1738135;81;27434;-79
2022/08/13 01:06:06;;;;;;;14.40;10.68;;;;;;;19.79;98.71;100974.02;1739350;82;25737;-79
2022/08/13 01:08:40;;;;;;;14.20;10.63;;;;;;;19.79;98.78;100971.29;1737079;82;25801;-79
2022/08/13 01:11:13;;;;;;;14.00;11.53;;;;;;;19.82;98.72;100966.20;1726355;81;26591;-78
2022/08/13 01:13:45;;;;;;;13.95;10.78;;;;;;;19.84;98.65;100968.70;1736572;82;25813;-78
2022/08/13 01:16:14;;;;;;;14.25;11.43;;;;;;;19.85;98.56;100958.09;1721527;82;27455;-80
2022/08/13 01:18:47;;;;;;;12.82;11.25;;;;;;;19.83;98.54;100956.98;1738062;82;25734;-80
2022/08/13 01:21:23;;;;;;;14.70;11.48;;;;;;;19.83;98.36;100955.63;1709582;82;25796;-79
2022/08/13 01:23:54;;;;;;;13.48;11.45;;;;;;;19.83;98.43;100954.80;1738646;82;25770;-79
2022/08/13 01:26:22;;;;;;;12.82;10.43;;;;;;;19.84;98.37;100949.67;1719361;82;25777;-79
2022/08/13 01:28:51;;;;;;;13.78;10.63;;;;;;;19.87;98.37;100947.81;1732261;82;28286;-80
2022/08/13 01:31:20;;;;;;;15.15;11.00;;;;;;;19.86;98.31;100948.89;1733850;82;25819;-80
2022/08/13 01:33:56;;;;;;;12.75;11.48;;;;;;;19.88;98.18;100949.48;1734873;82;25839;-80
2022/08/13 01:36:20;;;;;;;14.50;11.57;;;;;;;19.90;98.00;100950.06;1734150;82;25857;-80
2022/08/13 01:38:46;;;;;;;16.30;10.88;;;;;;;19.90;98.09;100944.10;1743333;82;25812;-79
2022/08/13 01:41:12;;;;;;;14.18;11.80;;;;;;;19.87;97.96;100946.45;1738253;81;27438;-80
2022/08/13 01:43:40;;;;;;;12.30;10.72;;;;;;;19.82;97.93;100937.65;1743095;81;25800;-79
2022/08/13 01:46:11;;;;;;;12.45;10.75;;;;;;;19.78;97.96;100936.48;1739912;81;26040;-79
2022/08/13 01:51:35;;;;;;;14.43;10.72;;;;;;;19.65;98.31;100935.37;1737340;81;25923;-79
2022/08/13 01:54:02;;;;;;;15.35;10.88;;;;;;;19.62;98.67;100937.22;1751250;80;27456;-78
2022/08/13 01:56:31;;;;;;;13.90;10.98;;;;;;;19.62;98.93;100935.86;1742284;81;25885;-79
2022/08/13 01:59:02;;;;;;;10.98;9.93;;;;;;;19.61;98.94;100944.27;1702722;82;25740;-78
2022/08/13 02:01:32;;;;;;;12.30;9.13;;;;;;;19.62;98.99;100948.09;1666845;84;25792;-79
2022/08/13 02:03:58;;;;;;;11.25;9.93;;;;;;;19.66;99.00;100946.55;1701767;82;25810;-78
2022/08/13 02:06:29;;;;;;;12.88;9.85;;;;;;;19.70;99.00;100950.97;1697354;82;27464;-79
2022/08/13 02:09:01;;;;;;;;;;;;;;;19.72;98.94;100943.40;1706239;82;25772;-79
2022/08/13 02:11:32;;;;;;;13.45;10.28;;;;;;;19.74;98.97;100939.91;1726736;81;25696;-79
2022/08/13 02:14:02;;;;;;;11.70;10.18;;;;;;;19.73;99.01;100940.47;1738929;81;26485;-78
2022/08/13 02:16:34;;;;;;;11.18;10.08;;;;;;;19.75;98.89;100945.13;1738944;81;25784;-80
2022/08/13 02:19:02;;;;;;;11.65;9.85;;;;;;;19.77;98.82;100947.07;1710559;82;27420;-79
2022/08/13 02:21:35;;;;;;;11.22;10.18;;;;;;;19.80;98.71;100944.41;1671421;84;25337;-79
2022/08/13 02:24:08;;;;;;;12.93;10.05;;;;;;;19.81;98.72;100940.09;1675821;84;25945;-79
2022/08/13 02:26:32;;;;;;;12.50;10.23;;;;;;;19.84;98.59;100936.08;1731887;81;26006;-79
2022/08/13 02:29:04;;;;;;;11.78;9.80;;;;;;;19.86;98.56;100935.30;1740617;81;25774;-79
2022/08/13 02:31:32;;;;;;;11.43;9.68;;;;;;;19.85;98.50;100931.75;1735192;81;27488;-79
2022/08/13 02:33:58;;;;;;;11.57;10.15;;;;;;;19.84;98.43;100930.11;1735806;81;25592;-79
2022/08/13 02:36:26;;;;;;;14.93;10.38;;;;;;;19.84;98.47;100926.56;1743329;81;25820;-79
2022/08/13 02:39:02;;;;;;;13.05;10.40;;;;;;;19.84;98.44;100926.56;1729505;81;26394;-78
2022/08/13 02:41:40;;;;;;;10.98;9.98;;;;;;;19.84;98.40;100926.03;1742165;81;25930;-79
2022/08/13 02:44:11;;;;;;;10.95;9.53;;;;;;;19.81;98.45;100925.14;1738505;81;27476;-80
2022/08/13 02:46:40;;;;;;;10.68;9.63;;;;;;;19.79;98.50;100929.99;1739768;81;25947;-79
2022/08/13 02:49:07;;;;;;;12.05;9.80;;;;;;;19.82;98.54;100935.48;1742874;81;25783;-79
2022/08/13 02:51:33;;;;;;;10.60;9.60;;;;;;;19.84;98.69;100933.36;1729393;81;25778;-78
2022/08/13 02:54:00;;;;;;;13.38;9.43;;;;;;;19.86;98.60;100937.49;1741381;81;25789;-79
2022/08/13 02:56:28;;;;;;;10.90;9.70;;;;;;;19.89;98.53;100934.80;1745667;81;27455;-79
2022/08/13 02:58:56;;;;;;;12.18;9.50;;;;;;;19.90;98.49;100929.67;1742637;81;25954;-78
2022/08/13 03:01:26;;;;;;;14.98;10.10;;;;;;;19.92;98.32;100931.62;1731189;81;25768;-80
2022/08/13 03:03:54;;;;;;;13.50;10.75;;;;;;;19.91;98.39;100932.14;1737626;81;26452;-78
2022/08/13 03:06:22;;;;;;;12.43;10.00;;;;;;;19.94;98.44;100933.56;1739981;81;25773;-78
2022/08/13 03:08:52;;;;;;;10.70;9.53;;;;;;;19.93;98.37;100927.29;1745285;81;28250;-79
2022/08/13 03:11:20;;;;;;;12.43;9.98;;;;;;;19.94;98.39;100926.77;1747516;81;25807;-79
2022/08/13 03:14:01;;;;;;;10.65;9.58;;;;;;;19.93;98.39;100925.13;1739877;81;25961;-78
2022/08/13 03:16:28;;;;;;;15.50;10.55;;;;;;;19.90;98.30;100923.71;1684625;83;26554;-79
2022/08/13 03:18:57;;;;;;;11.53;10.28;;;;;;;19.89;98.11;100917.12;1681912;83;25749;-79
2022/08/13 03:21:32;;;;;;;11.83;10.72;;;;;;;19.88;98.02;100923.12;1674747;84;27493;-79
2022/08/13 03:24:00;;;;;;;10.82;9.83;;;;;;;19.84;98.02;100914.33;1708457;83;26523;-79
2022/08/13 03:26:27;;;;;;;10.75;9.75;;;;;;;19.80;98.09;100919.95;1707846;82;25815;-79
2022/08/13 03:28:54;;;;;;;11.00;9.83;;;;;;;19.74;97.96;100911.36;1746194;81;25921;-80
2022/08/13 03:31:21;;;;;;;10.65;9.53;;;;;;;19.68;97.91;100911.80;1737264;81;25837;-78
2022/08/13 03:33:48;;;;;;;9.68;8.73;;;;;;;19.65;98.10;100916.90;1734481;81;27462;-78
2022/08/13 03:36:15;;;;;;;11.97;9.55;;;;;;;19.64;98.12;100910.63;1736706;81;25694;-78
2022/08/13 03:38:42;;;;;;;10.63;9.05;;;;;;;19.65;98.15;100910.91;1739976;81;25781;-78
2022/08/13 03:41:11;;;;;;;10.45;9.53;;;;;;;19.65;98.09;100910.91;1735404;81;26599;-78
2022/08/13 03:43:44;;;;;;;10.45;9.15;;;;;;;19.65;97.96;100908.19;1733931;81;26411;-78
2022/08/13 03:46:17;;;;;;;10.72;9.13;;;;;;;19.65;97.88;100914.18;1735278;81;27461;-79
2022/08/13 03:48:47;;;;;;;10.20;9.10;;;;;;;19.63;97.80;100916.31;1742332;81;25790;-79
2022/08/13 03:51:16;;;;;;;12.45;8.98;;;;;;;19.61;97.70;100911.09;1735882;81;25759;-79
2022/08/13 03:53:44;;;;;;;9.13;8.33;;;;;;;19.59;97.74;100911.06;1735509;81;26464;-79
2022/08/13 03:56:12;;;;;;;9.68;8.70;;;;;;;19.58;97.72;100917.02;1676330;84;25953;-79
2022/08/13 03:58:39;;;;;;;9.70;8.80;;;;;;;19.56;97.58;100918.32;1673740;84;27649;-77
2022/08/13 04:01:07;;;;;;;10.75;9.65;;;;;;;19.55;97.54;100909.33;1697435;82;25980;-78
2022/08/13 04:03:37;;;;;;;11.88;9.23;;;;;;;19.53;97.38;100910.10;1676959;84;25777;-77
2022/08/13 04:06:08;;;;;;;10.47;9.27;;;;;;;19.45;97.32;100910.47;1695628;84;26289;-77
2022/08/13 04:08:37;;;;;;;;;;;;;;;19.39;97.58;100912.78;1674665;84;25748;-78
2022/08/13 04:11:08;;;;;;;10.38;9.23;;;;;;;19.34;97.90;100912.66;1702854;82;27461;-79
2022/08/13 04:13:36;;;;;;;10.90;9.28;;;;;;;19.30;98.27;100915.52;1702832;82;25859;-78
2022/08/13 04:16:10;;;;;;;10.75;9.43;;;;;;;19.29;98.34;100910.33;1700639;82;25723;-80
2022/08/13 04:18:38;;;;;;;11.08;9.35;;;;;;;19.28;98.60;100914.93;1692081;82;25783;-79
2022/08/13 04:21:09;;;;;;;10.82;9.15;;;;;;;19.26;98.64;100910.27;1703048;82;26487;-78
2022/08/13 04:23:41;;;;;;;13.03;9.13;;;;;;;19.24;98.69;100906.96;1699564;82;27474;-79
2022/08/13 04:26:11;;;;;;;9.68;8.55;;;;;;;19.20;98.78;100914.73;1666368;84;25846;-78
2022/08/13 04:28:45;;;;;;;9.85;8.25;;;;;;;19.19;98.82;100911.73;1671817;84;25980;-79
2022/08/13 04:31:10;;;;;;;11.30;8.08;;;;;;;19.16;98.79;100913.55;1681012;84;25854;-78
2022/08/13 04:33:39;;;;;;;11.30;8.40;;;;;;;19.13;98.80;100909.97;1740975;81;25804;-78
2022/08/13 04:36:07;;;;;;;9.25;8.35;;;;;;;19.13;98.85;100916.76;1743106;81;27523;-78
2022/08/13 04:38:34;;;;;;;9.43;8.03;;;;;;;19.11;98.89;100920.23;1735859;81;25789;-79
2022/08/13 04:41:01;;;;;;;10.08;7.90;;;;;;;19.10;98.95;100920.45;1733844;81;25740;-79
2022/08/13 04:43:29;;;;;;;10.18;7.30;;;;;;;19.10;99.08;100920.45;1729760;81;26068;-78
2022/08/13 04:45:59;;;;;;;12.55;7.45;;;;;;;19.10;99.13;100914.50;1741166;81;25746;-78
2022/08/13 04:48:33;;;;;;;;;;;;;;;19.08;99.20;100920.70;1733874;81;27518;-79
2022/08/13 04:51:00;;;;;;;10.60;8.65;;;;;;;19.10;99.32;100916.38;1730281;81;25709;-78
2022/08/13 04:53:34;;;;;;;10.43;8.08;;;;;;;19.10;99.53;100916.38;1683646;83;25839;-79
2022/08/13 04:56:04;;;;;;;9.10;7.78;;;;;;;19.13;99.56;100920.00;1678189;83;26204;-79
2022/08/13 04:58:36;;;;;;;13.08;7.87;;;;;;;19.15;99.55;100915.98;1675996;83;25811;-79
2022/08/13 05:01:11;;;;;;;10.98;7.97;;;;;;;19.19;99.29;100920.41;1710545;82;27531;-79
2022/08/13 05:03:41;;;;;;;8.45;7.60;;;;;;;19.20;99.23;100914.73;1657351;84;26207;-79
2022/08/13 05:06:18;;;;;;;9.55;7.25;;;;;;;19.22;99.21;100922.11;1693428;82;27062;-78
2022/08/13 05:08:43;;;;;;;10.45;7.30;;;;;;;19.25;99.26;100918.11;1702509;82;26384;-79
2022/08/13 05:11:12;;;;;;;8.53;7.55;;;;;;;19.26;99.22;100912.98;1655263;84;25817;-78
2022/08/13 05:13:37;;;;;;;8.20;7.50;;;;;;;19.27;99.13;100917.34;1709018;82;27521;-79
2022/08/13 05:16:08;;;;;;;9.90;7.83;;;;;;;19.28;99.47;100917.64;1701038;82;26437;-79
2022/08/13 05:18:37;;;;;;;13.55;7.87;;;;;;;19.30;99.44;100912.80;1678678;84;25773;-78
2022/08/13 05:21:08;;;;;;;12.00;7.58;;;;;;;19.30;99.47;100919.59;1754519;81;25813;-79
2022/08/13 05:23:36;;;;;;;;;;;;;;;19.32;99.49;100916.62;1736932;81;26372;-78
2022/08/13 05:26:03;;;;;;;6.50;5.90;;;;;;;19.32;99.52;100919.34;1739026;81;28367;-79
2022/08/13 05:28:31;;;;;;;12.63;7.42;;;;;;;19.29;99.70;100907.06;1743455;81;25830;-79
2022/08/13 05:30:59;;;;;;;8.93;7.15;;;;;;;19.31;99.72;100907.65;1735096;81;25757;-79
2022/08/13 05:33:29;;;;;;;8.13;7.33;;;;;;;19.33;99.59;100906.91;1752133;81;25745;-79
2022/08/13 05:36:01;;;;;;;8.43;6.83;;;;;;;19.34;99.70;100905.00;1733480;81;25879;-79
2022/08/13 05:38:30;;;;;;;9.78;7.30;;;;;;;19.36;99.88;100903.73;1733268;81;27443;-79
2022/08/13 05:41:00;;;;;;;9.05;7.03;;;;;;;19.38;99.91;100901.61;1737607;82;25826;-79
2022/08/13 05:43:32;;;;;;;9.45;7.55;;;;;;;19.41;99.75;100903.03;1744664;82;26580;-78
2022/08/13 05:46:02;;;;;;;8.95;7.05;;;;;;;19.45;99.94;100903.68;1727707;82;26027;-78
2022/08/13 05:48:34;;;;;;;7.95;7.25;;;;;;;19.49;100.00;100902.66;1743590;80;25781;-79
2022/08/13 05:51:03;;;;;;;8.90;6.80;;;;;;;19.55;100.00;100903.90;1727043;82;27526;-78
2022/08/13 05:53:36;;;;;;;8.63;7.28;;;;;;;19.61;100.00;100907.57;1741903;81;25276;-79
2022/08/13 05:56:00;;;;;;;9.05;6.90;;;;;;;19.64;100.00;100905.19;1734121;82;25302;-79
2022/08/13 05:58:26;;;;;;;10.65;6.83;;;;;;;19.67;100.00;100903.38;1723110;82;25815;-78
2022/08/13 06:03:39;;;;;;;8.38;6.50;;;;;;;19.75;100.00;100900.28;1728640;82;26916;-78
2022/08/13 06:06:09;;;;;;;8.20;7.40;;;;;;;19.84;100.00;100900.73;1738132;82;25921;-77
2022/08/13 06:08:40;;;;;;;7.22;6.60;;;;;;;19.91;100.00;100894.61;1737650;82;25813;-78
2022/08/13 06:11:10;;;;;;;;;;;;;;;19.96;100.00;100896.91;1666774;85;25796;-80
2022/08/13 06:13:38;;;;;;;9.58;6.30;;;;;;;20.04;100.00;100888.89;1692152;84;25322;-80
2022/08/13 06:16:08;;;;;;;9.78;6.22;;;;;;;20.11;100.00;100888.75;1702234;84;27642;-80
2022/08/13 06:18:37;;;;;;;8.40;6.35;;;;;;;20.22;100.00;100893.36;1690319;84;26387;-80
2022/08/13 06:21:07;;;;;;;7.83;6.50;;;;;;;20.31;100.00;100895.47;1692401;84;25814;-80
2022/08/13 06:23:37;;;;;;;9.03;7.10;;;;;;;20.45;100.00;100905.50;1691892;84;26569;-80
2022/08/13 06:26:10;;;;;;;8.80;5.78;;;;;;;20.56;100.00;100905.98;1703305;84;25978;-81
2022/08/13 06:28:37;;;;;;;12.03;6.30;;;;;;;20.63;99.68;100902.58;1691307;83;27449;-80
2022/08/13 06:31:07;;;;;;;8.83;6.12;;;;;;;20.67;99.30;100899.66;1703007;83;25685;-80
2022/08/13 06:33:37;;;;;;;7.35;5.85;;;;;;;20.71;98.78;100900.81;1680554;83;25900;-81
2022/08/13 06:36:07;;;;;;;8.63;5.62;;;;;;;20.72;98.25;100901.92;1697365;83;25916;-80
2022/08/13 06:38:43;;;;;;;;;;;;;;;20.72;98.03;100906.00;1688854;83;25765;-80
2022/08/13 06:41:12;;;;;;;7.45;5.58;;;;;;;20.71;97.92;100902.17;1708233;82;28252;-81
2022/08/13 06:43:47;;;;;;;8.30;6.35;;;;;;;20.67;97.92;100896.41;1673136;85;25746;-80
2022/08/13 06:46:17;;;;;;;5.97;5.28;;;;;;;20.69;98.06;100899.70;1703757;82;26477;-81
2022/08/13 06:48:44;;;;;;;7.92;6.22;;;;;;;20.71;98.17;100908.98;1703762;84;25805;-80
2022/08/13 06:51:13;;;;;;;9.08;5.90;;;;;;;20.71;98.31;100910.34;1674340;85;25747;-81
2022/08/13 06:53:43;;;;;;;8.75;5.62;;;;;;;20.69;98.50;100917.40;1691329;84;27459;-80
2022/08/13 06:56:20;;;;;;;6.28;5.53;;;;;;;20.67;98.27;100924.16;1663701;85;25764;-80
2022/08/13 06:58:50;;;;;;;7.90;6.33;;;;;;;20.64;98.35;100945.88;1704426;83;25739;-81
2022/08/13 07:01:23;;;;;;;13.18;6.62;;;;;;;20.62;98.81;101009.80;1666037;84;25983;-80
2022/08/13 07:03:52;;;;;;;7.78;6.37;;;;;;;20.59;98.82;101014.38;1674904;85;26317;-80
2022/08/13 07:06:25;;;;;;;7.80;6.40;;;;;;;20.56;98.60;101015.69;1691992;84;27472;-79
2022/08/13 07:08:54;;;;;;;7.55;5.95;;;;;;;20.52;98.37;101024.05;1689625;84;25904;-78
2022/08/13 07:11:26;;;;;;;9.60;7.60;;;;;;;20.50;97.77;101049.32;1693909;84;34874;-80
2022/08/13 07:13:57;;;;;;;8.80;7.35;;;;;;;20.40;97.61;101036.84;1702793;83;25784;-79
2022/08/13 07:16:30;;;;;;;11.12;7.20;;;;;;;20.24;97.29;101035.41;1702911;84;26544;-79
2022/08/13 07:18:56;;;;;;;10.53;8.40;;;;;;;20.10;97.65;101032.63;1702652;84;28321;-79
2022/08/13 07:21:24;;;;;;;9.88;7.87;;;;;;;19.99;97.94;101032.94;1698988;84;25980;-80
2022/08/13 07:23:54;;;;;;;11.15;8.78;;;;;;;19.92;98.49;101033.05;1662440;85;25552;-80
2022/08/13 07:26:24;;;;;;;9.70;8.43;;;;;;;19.84;98.77;101018.99;1688087;82;25785;-80
2022/08/13 07:28:51;;;;;;;11.80;9.77;;;;;;;19.80;99.26;101020.53;1669407;85;26031;-79
2022/08/13 07:31:24;;;;;;;15.45;9.05;;;;;;;19.76;99.74;101024.23;1675517;85;27919;-80
2022/08/13 07:33:53;;;;;;;13.20;9.93;;;;;;;19.74;100.00;101016.85;1696650;84;25984;-76
2022/08/13 07:36:23;;;;;;;11.70;9.03;;;;;;;19.72;100.00;101010.83;1712098;82;25721;-77
2022/08/13 07:38:51;;;;;;;11.07;9.63;;;;;;;19.70;100.00;101012.95;1723552;82;25795;-76
2022/08/13 07:41:20;;;;;;;13.40;9.45;;;;;;;19.70;100.00;101010.77;1730901;82;26368;-76
2022/08/13 07:43:47;;;;;;;14.43;9.55;;;;;;;19.74;100.00;101014.66;1669148;85;28894;-76
2022/08/13 07:46:17;;;;;;;11.80;10.00;;;;;;;19.76;100.00;101020.16;1702495;84;25899;-75
2022/08/13 07:48:49;;;;;;;12.13;10.90;;;;;;;19.78;100.00;101015.31;1703538;84;25982;-76
2022/08/13 07:51:21;;;;;;;11.48;9.45;;;;;;;19.80;100.00;101005.02;1673295;84;25883;-75
2022/08/13 07:53:54;;;;;;;9.68;8.68;;;;;;;19.80;100.00;101008.30;1675070;84;25781;-75
2022/08/13 07:57:34;;;;;;;10.40;8.30;;;;;;;19.84;100.00;100995.88;1736480;81;27466;-75
2022/08/13 08:00:35;;;;;;;9.40;8.10;;;;;;;19.85;100.00;100986.64;1737999;81;25797;-76
2022/08/13 08:03:21;;;;;;;12.53;8.43;;;;;;;19.85;100.00;100963.02;1723051;81;26441;-76
2022/08/13 08:09:54;;;;;;;10.28;8.30;;;;;;;19.93;100.00;100931.92;1739336;81;25851;-77
2022/08/13 08:12:35;;;;;;;9.48;8.50;;;;;;;20.01;100.00;100930.19;1746150;81;27457;-78
2022/08/13 08:15:00;;;;;;;10.15;8.18;;;;;;;20.08;100.00;100914.53;1735371;81;26482;-77
2022/08/13 08:17:29;;;;;;;13.38;8.85;;;;;;;20.13;100.00;100905.66;1739055;81;25771;-78
2022/08/13 08:19:56;;;;;;;11.03;8.90;;;;;;;20.17;100.00;100894.58;1738516;81;25791;-78
2022/08/13 08:22:23;;;;;;;8.88;7.97;;;;;;;20.27;100.00;100888.03;1742684;81;25687;-78
2022/08/13 08:24:50;;;;;;;13.22;9.40;;;;;;;20.35;100.00;100905.31;1740838;81;27452;-78
2022/08/13 08:27:19;;;;;;;11.30;9.23;;;;;;;20.39;100.00;100906.48;1737772;81;25754;-78
2022/08/13 08:29:48;;;;;;;10.15;9.00;;;;;;;20.47;100.00;100893.84;1740772;81;25777;-77
2022/08/13 08:32:15;;;;;;;11.20;8.85;;;;;;;20.55;100.00;100885.30;1731045;81;26589;-77
2022/08/13 08:34:46;;;;;;;11.83;9.53;;;;;;;20.63;100.00;100879.45;1737512;81;25931;-76
2022/08/13 08:43:03;;;;;;;9.50;8.50;;;;;;;20.91;100.00;100867.13;1734021;81;25791;-77
2022/08/13 08:45:31;;;;;;;11.45;9.30;;;;;;;20.89;100.00;100865.20;1733291;81;25710;-78
2022/08/13 08:48:01;;;;;;;9.03;8.25;;;;;;;20.93;100.00;100858.70;1744109;81;25783;-77
2022/08/13 08:50:27;;;;;;;9.55;8.58;;;;;;;20.92;100.00;100857.87;1741339;80;27520;-77
2022/08/13 08:55:42;;;;;;;10.85;8.90;;;;;;;20.90;100.00;100868.19;1667626;84;25786;-77
2022/08/13 08:58:11;;;;;;;9.80;8.88;;;;;;;20.94;100.00;100865.26;1689470;82;26184;-79
2022/08/13 09:00:41;;;;;;;;;;;;;;;20.97;100.00;100869.39;1672500;84;25297;-77
2022/08/13 09:03:10;;;;;;;10.68;7.97;;;;;;;20.99;100.00;100868.60;1712286;82;27994;-77
2022/08/13 09:05:37;;;;;;;8.98;8.00;;;;;;;20.95;100.00;100876.45;1672791;84;25770;-77
2022/08/13 09:08:08;;;;;;;9.20;8.25;;;;;;;20.95;100.00;100875.09;1702802;82;25701;-77
2022/08/13 09:10:36;;;;;;;12.80;9.78;;;;;;;20.96;100.00;100863.64;1700584;82;25862;-77
2022/08/13 09:13:03;;;;;;;14.13;9.20;;;;;;;20.97;100.00;100854.41;1671936;84;44105;-78
2022/08/13 09:15:34;;;;;;;9.95;8.98;;;;;;;20.98;100.00;100847.91;1673178;84;28247;-78
2022/08/13 09:18:02;;;;;;;9.25;8.45;;;;;;;21.00;100.00;100849.28;1687158;84;25816;-77
2022/08/13 09:20:33;;;;;;;9.75;8.75;;;;;;;20.98;100.00;100841.09;1698677;83;25980;-78
2022/08/13 09:23:16;;;;;;;9.33;8.33;;;;;;;21.01;100.00;100847.39;1748273;81;25756;-77
2022/08/13 09:25:48;;;;;;;10.03;8.75;;;;;;;21.10;100.00;100848.13;1738672;81;25797;-78
2022/08/13 09:28:11;;;;;;;8.85;7.80;;;;;;;21.18;100.00;100833.23;1667526;84;27468;-78
2022/08/13 09:30:40;;;;;;;12.03;8.55;;;;;;;21.30;100.00;100825.77;1711910;82;25757;-77
2022/08/13 09:33:06;;;;;;;11.12;8.00;;;;;;;21.37;100.00;100812.27;1710460;82;25849;-77
2022/08/13 09:35:33;;;;;;;12.50;8.93;;;;;;;21.47;100.00;100808.30;1702387;82;25832;-78
2022/08/13 09:38:02;;;;;;;10.68;9.10;;;;;;;21.65;100.00;100804.98;1703908;82;25896;-78
2022/08/13 09:40:32;;;;;;;8.68;7.80;;;;;;;21.75;100.00;100806.48;1672982;84;28332;-77
2022/08/13 09:43:05;;;;;;;8.58;7.35;;;;;;;21.85;100.00;100805.26;1727859;81;35309;-77
2022/08/13 09:45:33;;;;;;;8.90;7.62;;;;;;;21.93;100.00;100796.08;1739590;81;25772;-77
2022/08/13 09:48:00;;;;;;;11.73;7.87;;;;;;;22.00;100.00;100795.34;1701278;82;25852;-78
2022/08/13 09:50:27;;;;;;;10.55;7.37;;;;;;;22.06;100.00;100803.03;1679990;84;25929;-78
2022/08/13 09:52:56;;;;;;;8.53;7.72;;;;;;;22.18;100.00;100798.23;1712500;82;27455;-77
2022/08/13 09:55:25;;;;;;;8.85;7.87;;;;;;;22.28;100.00;100810.07;1702811;82;26480;-78
2022/08/13 09:57:59;;;;;;;7.90;7.10;;;;;;;22.33;100.00;100807.94;1672652;84;25759;-77
2022/08/13 10:00:24;;;;;;;7.78;7.08;;;;;;;22.32;100.00;100806.30;1700606;83;26780;-78
2022/08/13 10:02:56;;;;;;;9.53;6.87;;;;;;;22.44;100.00;100816.50;1744518;81;25771;-78
2022/08/13 10:05:21;;;;;;;8.75;7.45;;;;;;;22.62;100.00;100816.16;1739777;81;27515;-76
2022/08/13 10:07:47;;;;;;;11.03;7.42;;;;;;;22.74;100.00;100826.36;1736143;81;26365;-76
2022/08/13 10:10:15;;;;;;;7.87;7.05;;;;;;;22.67;100.00;100829.01;1739159;81;25830;-76
2022/08/13 10:12:42;;;;;;;8.33;7.47;;;;;;;22.63;100.00;100827.88;1732851;81;25800;-76
2022/08/13 10:15:10;;;;;;;10.43;7.25;;;;;;;22.62;100.00;100827.09;1670018;85;25852;-76
2022/08/13 10:17:58;;;;;;;7.45;6.85;;;;;;;22.56;99.71;100834.89;1700973;83;27466;-76
2022/08/13 10:20:36;;;;;;;8.98;6.78;;;;;;;22.53;99.82;100833.23;1700407;84;25818;-77
2022/08/13 10:23:09;;;;;;;8.20;7.33;;;;;;;22.58;100.00;100838.75;1669153;85;25816;-78
2022/08/13 10:25:37;;;;;;;9.15;8.23;;;;;;;22.60;99.65;100835.25;1708681;82;26614;-77
2022/08/13 10:28:26;;;;;;;8.53;6.65;;;;;;;22.68;100.00;100840.23;1732619;81;25931;-77
2022/08/13 10:30:54;;;;;;;8.55;6.60;;;;;;;22.76;100.00;100844.67;1729255;81;27465;-77
2022/08/13 10:33:22;;;;;;;7.75;6.85;;;;;;;22.82;99.81;100849.62;1738121;81;25764;-77
2022/08/13 10:35:55;;;;;;;8.93;6.90;;;;;;;22.95;100.00;100850.55;1735609;81;26529;-78
2022/08/13 10:38:29;;;;;;;8.63;7.22;;;;;;;23.13;100.00;100852.05;1736735;81;26558;-78
2022/08/13 10:40:58;;;;;;;;;;;;;;;23.29;100.00;100866.91;1731531;81;25827;-77
2022/08/13 10:43:26;;;;;;;10.85;7.40;;;;;;;23.38;99.62;100864.00;1735185;80;27452;-78
2022/08/13 10:45:59;;;;;;;7.47;6.87;;;;;;;23.43;98.50;100868.14;1735617;81;26420;-78
2022/08/13 10:48:27;;;;;;;8.55;6.95;;;;;;;23.46;97.71;100868.16;1733346;81;25550;-77
2022/08/13 10:50:55;;;;;;;7.47;6.78;;;;;;;23.47;98.22;100862.41;1742916;81;25815;-78
2022/08/13 10:56:11;;;;;;;7.95;7.22;;;;;;;23.64;98.39;100852.11;1740196;81;27472;-77
2022/08/13 10:58:39;;;;;;;8.30;6.53;;;;;;;23.73;97.77;100853.79;1738984;81;25927;-77
2022/08/13 11:01:06;;;;;;;7.37;6.70;;;;;;;23.83;97.47;100851.63;1742410;81;25932;-78
2022/08/13 11:03:34;;;;;;;9.40;6.70;;;;;;;23.88;96.63;100840.17;1737977;81;26920;-77
2022/08/13 11:06:04;;;;;;;8.98;7.08;;;;;;;23.94;96.46;100839.63;1739037;81;25907;-78
2022/08/13 11:08:34;;;;;;;7.37;6.27;;;;;;;24.03;96.84;100832.55;1752965;80;27979;-78
2022/08/13 11:11:01;;;;;;;8.88;6.15;;;;;;;24.13;96.50;100834.80;1679699;84;25745;-78
2022/08/13 11:13:31;;;;;;;6.95;6.17;;;;;;;24.22;97.20;100832.36;1705134;83;26450;-78
2022/08/13 11:16:00;;;;;;;7.35;6.70;;;;;;;24.26;94.68;100825.24;1703248;83;26421;-77
2022/08/13 11:18:28;;;;;;;6.35;5.70;;;;;;;24.29;95.30;100820.03;1674163;84;26430;-77
2022/08/13 11:21:10;;;;;;;7.28;5.78;;;;;;;24.39;95.31;100817.33;1676026;84;27619;-77
2022/08/13 11:23:34;;;;;;;8.33;6.35;;;;;;;24.46;94.79;100814.33;1667738;84;26381;-77
2022/08/13 11:26:02;;;;;;;7.12;6.05;;;;;;;24.55;93.71;100813.23;1751703;80;26470;-78
2022/08/13 11:28:28;;;;;;;8.70;5.50;;;;;;;24.57;92.94;100816.52;1744343;81;26311;-77
2022/08/13 11:30:57;;;;;;;6.60;6.00;;;;;;;24.57;92.44;100817.89;1744639;81;25771;-78
2022/08/13 11:33:25;;;;;;;6.45;5.40;;;;;;;24.59;92.08;100811.05;1672640;84;27482;-77
2022/08/13 11:35:52;;;;;;;6.78;5.28;;;;;;;24.60;90.92;100815.95;1707779;82;26205;-78
2022/08/13 11:38:21;;;;;;;8.73;5.30;;;;;;;24.61;90.55;100819.81;1671400;84;25863;-78
2022/08/13 11:40:55;;;;;;;6.90;5.72;;;;;;;24.60;90.18;100820.89;1701369;82;25845;-77
2022/08/13 11:43:30;;;;;;;12.55;6.47;;;;;;;24.61;89.78;100809.40;1698315;82;25909;-78
2022/08/13 11:45:56;;;;;;;8.28;6.08;;;;;;;24.61;89.74;100808.03;1706284;82;28198;-78
2022/08/13 11:48:23;;;;;;;7.70;5.85;;;;;;;24.64;90.18;100807.46;1702771;82;26374;-77
2022/08/13 11:50:51;;;;;;;10.68;5.58;;;;;;;24.69;90.18;100801.99;1668466;84;25811;-77
2022/08/13 11:53:22;;;;;;;7.47;5.80;;;;;;;24.75;89.22;100798.18;1672482;84;26438;-78
2022/08/13 11:55:50;;;;;;;5.80;5.30;;;;;;;24.75;89.06;100796.81;1699528;82;25925;-78